sensor_id;sensor_type;location;lat;lon;timestamp;temperature;humidity
22167;DHT22;11249;52.468;13.776;2022-07-03T00:01:31;17.50;99.90
22167;DHT22;11249;52.468;13.776;2022-07-03T00:03:58;17.40;99.90
22167;DHT22;11249;52.468;13.776;2022-07-03T00:06:26;17.40;99.90
22167;DHT22;11249;52.468;13.776;2022-07-03T00:09:02;17.40;99.90
22167;DHT22;11249;52.468;13.776;2022-07-03T00:11:29;17.30;99.90
22167;DHT22;11249;52.468;13.776;2022-07-03T00:14:03;17.30;99.90
22167;DHT22;11249;52.468;13.776;2022-07-03T00:16:30;17.20;99.90
22167;DHT22;11249;52.468;13.776;2022-07-03T00:18:57;17.20;99.90
22167;DHT22;11249;52.468;13.776;2022-07-03T00:21:45;17.20;99.90
22167;DHT22;11249;52.468;13.776;2022-07-03T00:24:20;17.20;99.90
22167;DHT22;11249;52.468;13.776;2022-07-03T00:26:58;17.10;99.90
22167;DHT22;11249;52.468;13.776;2022-07-03T00:29:31;17.10;99.90
22167;DHT22;11249;52.468;13.776;2022-07-03T00:32:39;17.10;99.90
22167;DHT22;11249;52.468;13.776;2022-07-03T00:34:58;17.00;99.90
22167;DHT22;11249;52.468;13.776;2022-07-03T00:37:32;17.00;99.90
22167;DHT22;11249;52.468;13.776;2022-07-03T00:40:12;17.00;99.90
22167;DHT22;11249;52.468;13.776;2022-07-03T00:42:39;16.90;99.90
22167;DHT22;11249;52.468;13.776;2022-07-03T00:45:12;16.90;99.90
22167;DHT22;11249;52.468;13.776;2022-07-03T00:47:49;16.90;99.90
22167;DHT22;11249;52.468;13.776;2022-07-03T00:50:16;16.80;99.90
22167;DHT22;11249;52.468;13.776;2022-07-03T00:52:50;16.80;99.90
22167;DHT22;11249;52.468;13.776;2022-07-03T00:55:21;16.70;99.90
22167;DHT22;11249;52.468;13.776;2022-07-03T00:57:49;16.70;99.90
22167;DHT22;11249;52.468;13.776;2022-07-03T01:00:22;16.70;99.90
22167;DHT22;11249;52.468;13.776;2022-07-03T01:03:05;16.60;99.90
22167;DHT22;11249;52.468;13.776;2022-07-03T01:05:39;16.60;99.90
22167;DHT22;11249;52.468;13.776;2022-07-03T01:08:42;16.60;99.90
22167;DHT22;11249;52.468;13.776;2022-07-03T01:11:25;16.50;99.90
22167;DHT22;11249;52.468;13.776;2022-07-03T01:14:12;16.50;99.90
22167;DHT22;11249;52.468;13.776;2022-07-03T01:16:57;16.50;99.90
22167;DHT22;11249;52.468;13.776;2022-07-03T01:19:41;16.50;99.90
22167;DHT22;11249;52.468;13.776;2022-07-03T01:22:30;16.40;99.90
22167;DHT22;11249;52.468;13.776;2022-07-03T01:28:13;16.30;99.90
22167;DHT22;11249;52.468;13.776;2022-07-03T01:30:52;16.30;99.90
22167;DHT22;11249;52.468;13.776;2022-07-03T01:33:30;16.30;99.90
22167;DHT22;11249;52.468;13.776;2022-07-03T01:36:13;16.30;99.90
22167;DHT22;11249;52.468;13.776;2022-07-03T01:38:49;16.20;99.90
22167;DHT22;11249;52.468;13.776;2022-07-03T01:41:24;16.20;99.90
22167;DHT22;11249;52.468;13.776;2022-07-03T01:43:56;16.20;99.90
22167;DHT22;11249;52.468;13.776;2022-07-03T01:46:32;16.20;99.90
22167;DHT22;11249;52.468;13.776;2022-07-03T01:49:06;16.10;99.90
22167;DHT22;11249;52.468;13.776;2022-07-03T01:51:35;16.10;99.90
22167;DHT22;11249;52.468;13.776;2022-07-03T01:54:19;16.10;99.90
22167;DHT22;11249;52.468;13.776;2022-07-03T01:56:54;16.10;99.90
22167;DHT22;11249;52.468;13.776;2022-07-03T01:59:21;16.00;99.90
22167;DHT22;11249;52.468;13.776;2022-07-03T02:02:00;16.00;99.90
22167;DHT22;11249;52.468;13.776;2022-07-03T02:04:50;15.90;99.90
22167;DHT22;11249;52.468;13.776;2022-07-03T02:07:55;15.90;99.90
22167;DHT22;11249;52.468;13.776;2022-07-03T02:10:42;15.90;99.90
22167;DHT22;11249;52.468;13.776;2022-07-03T02:13:19;15.90;99.90
22167;DHT22;11249;52.468;13.776;2022-07-03T02:15:58;15.80;99.90
22167;DHT22;11249;52.468;13.776;2022-07-03T02:18:33;15.80;99.90
22167;DHT22;11249;52.468;13.776;2022-07-03T02:21:14;15.80;99.90
22167;DHT22;11249;52.468;13.776;2022-07-03T02:26:31;15.70;99.90
22167;DHT22;11249;52.468;13.776;2022-07-03T02:29:03;15.70;99.90
22167;DHT22;11249;52.468;13.776;2022-07-03T02:31:58;15.70;99.90
22167;DHT22;11249;52.468;13.776;2022-07-03T02:34:44;15.60;99.90
22167;DHT22;11249;52.468;13.776;2022-07-03T02:37:29;15.60;99.90
22167;DHT22;11249;52.468;13.776;2022-07-03T02:43:18;15.50;99.90
22167;DHT22;11249;52.468;13.776;2022-07-03T02:46:00;15.50;99.90
22167;DHT22;11249;52.468;13.776;2022-07-03T02:51:54;15.40;99.90
22167;DHT22;11249;52.468;13.776;2022-07-03T02:54:39;15.40;99.90
22167;DHT22;11249;52.468;13.776;2022-07-03T02:57:09;15.40;99.90
22167;DHT22;11249;52.468;13.776;2022-07-03T02:59:56;15.40;99.90
22167;DHT22;11249;52.468;13.776;2022-07-03T03:05:12;15.30;99.90
22167;DHT22;11249;52.468;13.776;2022-07-03T03:08:04;15.30;99.90
22167;DHT22;11249;52.468;13.776;2022-07-03T03:10:39;15.40;99.90
22167;DHT22;11249;52.468;13.776;2022-07-03T03:13:08;15.30;99.90
22167;DHT22;11249;52.468;13.776;2022-07-03T03:16:19;15.30;99.90
22167;DHT22;11249;52.468;13.776;2022-07-03T03:18:45;15.30;99.90
22167;DHT22;11249;52.468;13.776;2022-07-03T03:21:20;15.30;99.90
22167;DHT22;11249;52.468;13.776;2022-07-03T03:23:56;15.30;99.90
22167;DHT22;11249;52.468;13.776;2022-07-03T03:26:26;15.30;99.90
22167;DHT22;11249;52.468;13.776;2022-07-03T03:28:54;15.30;99.90
22167;DHT22;11249;52.468;13.776;2022-07-03T03:31:28;15.30;99.90
22167;DHT22;11249;52.468;13.776;2022-07-03T03:34:01;15.30;99.90
22167;DHT22;11249;52.468;13.776;2022-07-03T03:36:35;15.30;99.90
22167;DHT22;11249;52.468;13.776;2022-07-03T03:39:09;15.30;99.90
22167;DHT22;11249;52.468;13.776;2022-07-03T03:41:42;15.30;99.90
22167;DHT22;11249;52.468;13.776;2022-07-03T03:44:15;15.30;99.90
22167;DHT22;11249;52.468;13.776;2022-07-03T03:46:41;15.30;99.90
22167;DHT22;11249;52.468;13.776;2022-07-03T03:49:15;15.30;99.90
22167;DHT22;11249;52.468;13.776;2022-07-03T03:51:41;15.30;99.90
22167;DHT22;11249;52.468;13.776;2022-07-03T03:54:08;15.40;99.90
22167;DHT22;11249;52.468;13.776;2022-07-03T03:56:43;15.40;99.90
22167;DHT22;11249;52.468;13.776;2022-07-03T03:59:16;15.40;99.90
22167;DHT22;11249;52.468;13.776;2022-07-03T04:01:42;15.40;99.90
22167;DHT22;11249;52.468;13.776;2022-07-03T04:04:16;15.40;99.90
22167;DHT22;11249;52.468;13.776;2022-07-03T04:06:52;15.50;99.90
22167;DHT22;11249;52.468;13.776;2022-07-03T04:09:18;15.50;99.90
22167;DHT22;11249;52.468;13.776;2022-07-03T04:11:52;15.50;99.90
22167;DHT22;11249;52.468;13.776;2022-07-03T04:14:25;15.50;99.90
22167;DHT22;11249;52.468;13.776;2022-07-03T04:16:52;15.60;99.90
22167;DHT22;11249;52.468;13.776;2022-07-03T04:19:25;15.60;99.90
22167;DHT22;11249;52.468;13.776;2022-07-03T04:21:51;15.70;99.90
22167;DHT22;11249;52.468;13.776;2022-07-03T04:24:25;15.80;99.90
22167;DHT22;11249;52.468;13.776;2022-07-03T04:26:58;15.90;99.90
22167;DHT22;11249;52.468;13.776;2022-07-03T04:29:24;16.00;99.90
22167;DHT22;11249;52.468;13.776;2022-07-03T04:31:58;16.10;99.90
22167;DHT22;11249;52.468;13.776;2022-07-03T04:34:24;16.20;99.90
22167;DHT22;11249;52.468;13.776;2022-07-03T04:37:04;16.30;99.90
22167;DHT22;11249;52.468;13.776;2022-07-03T04:39:31;16.40;99.90
22167;DHT22;11249;52.468;13.776;2022-07-03T04:42:05;16.50;99.90
22167;DHT22;11249;52.468;13.776;2022-07-03T04:44:32;16.60;99.90
22167;DHT22;11249;52.468;13.776;2022-07-03T04:46:58;16.70;99.90
22167;DHT22;11249;52.468;13.776;2022-07-03T04:49:32;16.80;99.90
22167;DHT22;11249;52.468;13.776;2022-07-03T04:51:58;16.80;99.90
22167;DHT22;11249;52.468;13.776;2022-07-03T04:54:32;16.90;99.90
22167;DHT22;11249;52.468;13.776;2022-07-03T04:56:58;17.00;99.90
22167;DHT22;11249;52.468;13.776;2022-07-03T04:59:25;17.10;99.90
22167;DHT22;11249;52.468;13.776;2022-07-03T05:01:59;17.20;99.90
22167;DHT22;11249;52.468;13.776;2022-07-03T05:04:32;17.30;99.90
22167;DHT22;11249;52.468;13.776;2022-07-03T05:06:59;17.40;99.90
22167;DHT22;11249;52.468;13.776;2022-07-03T05:09:32;17.50;99.90
22167;DHT22;11249;52.468;13.776;2022-07-03T05:12:05;17.60;99.90
22167;DHT22;11249;52.468;13.776;2022-07-03T05:14:32;17.60;99.90
22167;DHT22;11249;52.468;13.776;2022-07-03T05:17:05;17.70;99.90
22167;DHT22;11249;52.468;13.776;2022-07-03T05:19:31;17.80;99.90
22167;DHT22;11249;52.468;13.776;2022-07-03T05:22:05;17.80;99.90
22167;DHT22;11249;52.468;13.776;2022-07-03T05:24:32;17.90;99.90
22167;DHT22;11249;52.468;13.776;2022-07-03T05:26:58;18.00;99.90
22167;DHT22;11249;52.468;13.776;2022-07-03T05:29:32;18.10;99.90
22167;DHT22;11249;52.468;13.776;2022-07-03T05:32:05;18.10;99.90
22167;DHT22;11249;52.468;13.776;2022-07-03T05:34:33;18.20;99.90
22167;DHT22;11249;52.468;13.776;2022-07-03T05:37:06;18.30;99.90
22167;DHT22;11249;52.468;13.776;2022-07-03T05:39:39;18.50;99.90
22167;DHT22;11249;52.468;13.776;2022-07-03T05:42:12;18.60;99.90
22167;DHT22;11249;52.468;13.776;2022-07-03T05:44:46;18.70;99.90
22167;DHT22;11249;52.468;13.776;2022-07-03T05:47:19;18.80;99.90
22167;DHT22;11249;52.468;13.776;2022-07-03T05:49:52;18.90;99.90
22167;DHT22;11249;52.468;13.776;2022-07-03T05:52:19;19.10;99.90
22167;DHT22;11249;52.468;13.776;2022-07-03T05:54:46;19.10;99.90
22167;DHT22;11249;52.468;13.776;2022-07-03T05:57:20;19.30;99.90
22167;DHT22;11249;52.468;13.776;2022-07-03T05:59:59;19.40;99.90
22167;DHT22;11249;52.468;13.776;2022-07-03T06:02:26;19.50;99.90
22167;DHT22;11249;52.468;13.776;2022-07-03T06:04:59;19.60;99.90
22167;DHT22;11249;52.468;13.776;2022-07-03T06:07:32;19.70;99.90
22167;DHT22;11249;52.468;13.776;2022-07-03T06:10:05;19.80;99.90
22167;DHT22;11249;52.468;13.776;2022-07-03T06:12:32;19.90;99.90
22167;DHT22;11249;52.468;13.776;2022-07-03T06:14:59;20.00;99.90
22167;DHT22;11249;52.468;13.776;2022-07-03T06:17:34;20.20;99.90
22167;DHT22;11249;52.468;13.776;2022-07-03T06:20:06;20.30;99.90
22167;DHT22;11249;52.468;13.776;2022-07-03T06:22:40;20.40;99.90
22167;DHT22;11249;52.468;13.776;2022-07-03T06:25:20;20.60;99.90
22167;DHT22;11249;52.468;13.776;2022-07-03T06:27:47;20.80;99.90
22167;DHT22;11249;52.468;13.776;2022-07-03T06:30:20;20.80;99.90
22167;DHT22;11249;52.468;13.776;2022-07-03T06:32:46;21.00;99.90
22167;DHT22;11249;52.468;13.776;2022-07-03T06:35:13;21.00;99.90
22167;DHT22;11249;52.468;13.776;2022-07-03T06:37:50;21.10;99.90
22167;DHT22;11249;52.468;13.776;2022-07-03T06:40:24;21.20;99.90
22167;DHT22;11249;52.468;13.776;2022-07-03T06:42:57;21.30;99.90
22167;DHT22;11249;52.468;13.776;2022-07-03T06:45:23;21.40;99.90
22167;DHT22;11249;52.468;13.776;2022-07-03T06:47:50;21.50;99.90
22167;DHT22;11249;52.468;13.776;2022-07-03T06:50:24;21.60;99.90
22167;DHT22;11249;52.468;13.776;2022-07-03T06:52:57;21.70;99.90
22167;DHT22;11249;52.468;13.776;2022-07-03T06:55:23;21.80;99.90
22167;DHT22;11249;52.468;13.776;2022-07-03T06:57:50;21.90;99.90
22167;DHT22;11249;52.468;13.776;2022-07-03T07:00:24;22.00;99.90
22167;DHT22;11249;52.468;13.776;2022-07-03T07:02:50;22.00;99.90
22167;DHT22;11249;52.468;13.776;2022-07-03T07:05:17;22.10;99.90
22167;DHT22;11249;52.468;13.776;2022-07-03T07:07:51;22.20;99.90
22167;DHT22;11249;52.468;13.776;2022-07-03T07:10:17;22.30;99.90
22167;DHT22;11249;52.468;13.776;2022-07-03T07:12:51;22.40;99.90
22167;DHT22;11249;52.468;13.776;2022-07-03T07:15:18;22.50;99.90
22167;DHT22;11249;52.468;13.776;2022-07-03T07:17:51;22.60;99.90
22167;DHT22;11249;52.468;13.776;2022-07-03T07:20:17;22.70;99.90
22167;DHT22;11249;52.468;13.776;2022-07-03T07:22:51;22.80;99.90
22167;DHT22;11249;52.468;13.776;2022-07-03T07:25:17;22.90;99.90
22167;DHT22;11249;52.468;13.776;2022-07-03T07:27:51;22.90;99.90
22167;DHT22;11249;52.468;13.776;2022-07-03T07:30:17;23.00;99.90
22167;DHT22;11249;52.468;13.776;2022-07-03T07:32:51;23.00;99.90
22167;DHT22;11249;52.468;13.776;2022-07-03T07:35:20;23.00;99.90
22167;DHT22;11249;52.468;13.776;2022-07-03T07:38:01;23.10;99.90
22167;DHT22;11249;52.468;13.776;2022-07-03T07:40:34;23.20;99.90
22167;DHT22;11249;52.468;13.776;2022-07-03T07:43:07;23.30;99.90
22167;DHT22;11249;52.468;13.776;2022-07-03T07:45:34;23.40;99.90
22167;DHT22;11249;52.468;13.776;2022-07-03T07:48:07;23.40;99.90
22167;DHT22;11249;52.468;13.776;2022-07-03T07:50:34;23.50;99.90
22167;DHT22;11249;52.468;13.776;2022-07-03T07:53:00;23.50;99.90
22167;DHT22;11249;52.468;13.776;2022-07-03T07:55:34;23.60;99.90
22167;DHT22;11249;52.468;13.776;2022-07-03T07:58:00;23.70;99.90
22167;DHT22;11249;52.468;13.776;2022-07-03T08:00:34;23.80;99.90
22167;DHT22;11249;52.468;13.776;2022-07-03T08:03:01;23.80;99.90
22167;DHT22;11249;52.468;13.776;2022-07-03T08:05:53;23.80;99.90
22167;DHT22;11249;52.468;13.776;2022-07-03T08:08:19;23.90;99.90
22167;DHT22;11249;52.468;13.776;2022-07-03T08:10:50;24.00;99.90
22167;DHT22;11249;52.468;13.776;2022-07-03T08:13:24;24.00;99.90
22167;DHT22;11249;52.468;13.776;2022-07-03T08:15:51;24.00;99.90
22167;DHT22;11249;52.468;13.776;2022-07-03T08:18:25;24.10;99.90
22167;DHT22;11249;52.468;13.776;2022-07-03T08:20:58;24.10;99.90
22167;DHT22;11249;52.468;13.776;2022-07-03T08:23:24;24.20;99.90
22167;DHT22;11249;52.468;13.776;2022-07-03T08:25:51;24.20;99.90
22167;DHT22;11249;52.468;13.776;2022-07-03T08:28:24;24.20;99.90
22167;DHT22;11249;52.468;13.776;2022-07-03T08:30:50;24.30;99.90
22167;DHT22;11249;52.468;13.776;2022-07-03T08:33:17;24.30;99.90
22167;DHT22;11249;52.468;13.776;2022-07-03T08:35:50;24.30;99.90
22167;DHT22;11249;52.468;13.776;2022-07-03T08:38:16;24.40;99.90
22167;DHT22;11249;52.468;13.776;2022-07-03T08:41:01;24.50;99.90
22167;DHT22;11249;52.468;13.776;2022-07-03T08:43:28;24.50;99.90
22167;DHT22;11249;52.468;13.776;2022-07-03T08:46:02;24.60;99.90
22167;DHT22;11249;52.468;13.776;2022-07-03T08:48:30;24.70;99.90
22167;DHT22;11249;52.468;13.776;2022-07-03T08:51:06;24.80;99.90
22167;DHT22;11249;52.468;13.776;2022-07-03T08:53:33;24.80;99.90
22167;DHT22;11249;52.468;13.776;2022-07-03T08:56:00;24.80;99.90
22167;DHT22;11249;52.468;13.776;2022-07-03T08:58:35;25.00;99.90
22167;DHT22;11249;52.468;13.776;2022-07-03T09:01:01;25.00;99.90
22167;DHT22;11249;52.468;13.776;2022-07-03T09:03:28;25.10;99.90
22167;DHT22;11249;52.468;13.776;2022-07-03T09:06:02;25.10;99.90
22167;DHT22;11249;52.468;13.776;2022-07-03T09:08:30;25.10;99.90
22167;DHT22;11249;52.468;13.776;2022-07-03T09:10:58;25.10;99.90
22167;DHT22;11249;52.468;13.776;2022-07-03T09:13:32;25.30;99.90
22167;DHT22;11249;52.468;13.776;2022-07-03T09:15:59;25.30;99.90
22167;DHT22;11249;52.468;13.776;2022-07-03T09:18:40;25.30;99.90
22167;DHT22;11249;52.468;13.776;2022-07-03T09:21:13;25.30;99.90
22167;DHT22;11249;52.468;13.776;2022-07-03T09:23:46;25.30;99.90
22167;DHT22;11249;52.468;13.776;2022-07-03T09:26:21;25.30;99.90
22167;DHT22;11249;52.468;13.776;2022-07-03T09:28:53;25.50;99.90
22167;DHT22;11249;52.468;13.776;2022-07-03T09:31:28;25.40;99.90
22167;DHT22;11249;52.468;13.776;2022-07-03T09:34:06;25.50;99.90
22167;DHT22;11249;52.468;13.776;2022-07-03T09:36:50;25.60;99.90
22167;DHT22;11249;52.468;13.776;2022-07-03T09:39:31;25.80;99.90
22167;DHT22;11249;52.468;13.776;2022-07-03T09:42:09;25.90;99.90
22167;DHT22;11249;52.468;13.776;2022-07-03T09:44:43;25.90;99.90
22167;DHT22;11249;52.468;13.776;2022-07-03T09:47:23;26.00;99.90
22167;DHT22;11249;52.468;13.776;2022-07-03T09:50:02;26.20;99.90
22167;DHT22;11249;52.468;13.776;2022-07-03T09:57:42;26.60;99.90
22167;DHT22;11249;52.468;13.776;2022-07-03T10:07:59;26.70;99.90
22167;DHT22;11249;52.468;13.776;2022-07-03T10:10:29;26.70;99.90
22167;DHT22;11249;52.468;13.776;2022-07-03T10:13:03;26.90;99.90
22167;DHT22;11249;52.468;13.776;2022-07-03T10:15:32;27.00;99.90
22167;DHT22;11249;52.468;13.776;2022-07-03T10:17:59;27.00;99.90
22167;DHT22;11249;52.468;13.776;2022-07-03T10:23:06;27.10;99.90
22167;DHT22;11249;52.468;13.776;2022-07-03T10:25:33;27.30;99.90
22167;DHT22;11249;52.468;13.776;2022-07-03T10:28:07;27.50;99.90
22167;DHT22;11249;52.468;13.776;2022-07-03T10:30:43;27.60;99.90
22167;DHT22;11249;52.468;13.776;2022-07-03T10:33:17;27.90;99.90
22167;DHT22;11249;52.468;13.776;2022-07-03T10:35:49;28.10;99.90
22167;DHT22;11249;52.468;13.776;2022-07-03T10:38:40;28.40;99.90
22167;DHT22;11249;52.468;13.776;2022-07-03T10:41:30;28.00;99.90
22167;DHT22;11249;52.468;13.776;2022-07-03T10:44:25;27.70;99.90
22167;DHT22;11249;52.468;13.776;2022-07-03T10:50:20;28.40;99.90
22167;DHT22;11249;52.468;13.776;2022-07-03T10:52:47;28.90;99.90
22167;DHT22;11249;52.468;13.776;2022-07-03T10:55:21;29.20;99.90
22167;DHT22;11249;52.468;13.776;2022-07-03T10:58:07;29.40;99.90
22167;DHT22;11249;52.468;13.776;2022-07-03T11:00:52;29.80;99.90
22167;DHT22;11249;52.468;13.776;2022-07-03T11:03:54;29.70;99.90
22167;DHT22;11249;52.468;13.776;2022-07-03T11:09:24;30.40;99.90
22167;DHT22;11249;52.468;13.776;2022-07-03T11:11:50;30.70;99.80
22167;DHT22;11249;52.468;13.776;2022-07-03T11:14:33;31.00;99.20
22167;DHT22;11249;52.468;13.776;2022-07-03T11:17:19;31.20;99.10
22167;DHT22;11249;52.468;13.776;2022-07-03T11:19:52;31.50;98.50
22167;DHT22;11249;52.468;13.776;2022-07-03T11:22:51;31.80;98.40
22167;DHT22;11249;52.468;13.776;2022-07-03T11:25:26;31.90;97.30
22167;DHT22;11249;52.468;13.776;2022-07-03T11:28:04;31.90;97.00
22167;DHT22;11249;52.468;13.776;2022-07-03T11:33:59;32.30;96.50
22167;DHT22;11249;52.468;13.776;2022-07-03T11:36:46;32.60;96.30
22167;DHT22;11249;52.468;13.776;2022-07-03T11:39:26;32.90;95.70
22167;DHT22;11249;52.468;13.776;2022-07-03T11:42:00;33.00;95.30
22167;DHT22;11249;52.468;13.776;2022-07-03T11:44:33;33.10;94.50
22167;DHT22;11249;52.468;13.776;2022-07-03T11:47:00;33.00;94.50
22167;DHT22;11249;52.468;13.776;2022-07-03T11:49:33;33.10;93.90
22167;DHT22;11249;52.468;13.776;2022-07-03T11:52:02;33.10;94.20
22167;DHT22;11249;52.468;13.776;2022-07-03T11:54:31;33.00;94.40
22167;DHT22;11249;52.468;13.776;2022-07-03T11:57:05;33.40;93.50
22167;DHT22;11249;52.468;13.776;2022-07-03T11:59:32;33.60;93.50
22167;DHT22;11249;52.468;13.776;2022-07-03T12:02:03;33.20;92.30
22167;DHT22;11249;52.468;13.776;2022-07-03T12:04:38;32.30;92.80
22167;DHT22;11249;52.468;13.776;2022-07-03T12:07:11;32.60;93.50
22167;DHT22;11249;52.468;13.776;2022-07-03T12:09:38;32.20;92.70
22167;DHT22;11249;52.468;13.776;2022-07-03T12:12:11;32.60;92.90
22167;DHT22;11249;52.468;13.776;2022-07-03T12:14:47;33.40;92.80
22167;DHT22;11249;52.468;13.776;2022-07-03T12:17:19;33.40;93.10
22167;DHT22;11249;52.468;13.776;2022-07-03T12:19:57;33.90;92.50
22167;DHT22;11249;52.468;13.776;2022-07-03T12:22:33;34.40;91.60
22167;DHT22;11249;52.468;13.776;2022-07-03T12:25:08;34.00;91.00
22167;DHT22;11249;52.468;13.776;2022-07-03T12:27:43;33.70;91.10
22167;DHT22;11249;52.468;13.776;2022-07-03T12:30:20;34.00;91.10
22167;DHT22;11249;52.468;13.776;2022-07-03T12:32:57;34.00;91.10
22167;DHT22;11249;52.468;13.776;2022-07-03T12:35:30;33.90;90.80
22167;DHT22;11249;52.468;13.776;2022-07-03T12:38:09;34.40;90.80
22167;DHT22;11249;52.468;13.776;2022-07-03T12:40:36;34.50;90.30
22167;DHT22;11249;52.468;13.776;2022-07-03T12:43:10;34.80;89.70
22167;DHT22;11249;52.468;13.776;2022-07-03T12:45:36;35.40;90.00
22167;DHT22;11249;52.468;13.776;2022-07-03T12:48:10;35.40;88.50
22167;DHT22;11249;52.468;13.776;2022-07-03T12:50:45;35.50;88.30
22167;DHT22;11249;52.468;13.776;2022-07-03T12:53:28;35.50;84.50
22167;DHT22;11249;52.468;13.776;2022-07-03T12:56:00;35.50;85.60
22167;DHT22;11249;52.468;13.776;2022-07-03T12:58:40;35.80;86.30
22167;DHT22;11249;52.468;13.776;2022-07-03T13:01:30;35.80;84.30
22167;DHT22;11249;52.468;13.776;2022-07-03T13:04:07;35.90;85.00
22167;DHT22;11249;52.468;13.776;2022-07-03T13:06:35;36.20;84.40
22167;DHT22;11249;52.468;13.776;2022-07-03T13:09:09;36.50;84.40
22167;DHT22;11249;52.468;13.776;2022-07-03T13:11:37;36.10;84.70
22167;DHT22;11249;52.468;13.776;2022-07-03T13:16:44;35.10;85.10
22167;DHT22;11249;52.468;13.776;2022-07-03T13:19:14;34.80;86.00
22167;DHT22;11249;52.468;13.776;2022-07-03T13:21:47;35.40;86.20
22167;DHT22;11249;52.468;13.776;2022-07-03T13:24:16;36.10;83.90
22167;DHT22;11249;52.468;13.776;2022-07-03T13:26:44;36.10;83.20
22167;DHT22;11249;52.468;13.776;2022-07-03T13:29:20;36.40;83.50
22167;DHT22;11249;52.468;13.776;2022-07-03T13:31:54;36.90;82.90
22167;DHT22;11249;52.468;13.776;2022-07-03T13:34:21;36.70;82.70
22167;DHT22;11249;52.468;13.776;2022-07-03T13:36:55;36.90;81.80
22167;DHT22;11249;52.468;13.776;2022-07-03T13:39:34;37.10;81.80
22167;DHT22;11249;52.468;13.776;2022-07-03T13:42:08;37.30;80.80
22167;DHT22;11249;52.468;13.776;2022-07-03T13:44:37;37.40;81.00
22167;DHT22;11249;52.468;13.776;2022-07-03T13:47:10;37.70;80.40
22167;DHT22;11249;52.468;13.776;2022-07-03T13:49:37;37.90;80.40
22167;DHT22;11249;52.468;13.776;2022-07-03T13:52:04;37.80;78.60
22167;DHT22;11249;52.468;13.776;2022-07-03T13:54:38;37.20;78.80
22167;DHT22;11249;52.468;13.776;2022-07-03T13:57:12;37.10;79.30
22167;DHT22;11249;52.468;13.776;2022-07-03T13:59:39;36.80;80.40
22167;DHT22;11249;52.468;13.776;2022-07-03T14:02:13;36.20;80.90
22167;DHT22;11249;52.468;13.776;2022-07-03T14:04:40;35.30;79.80
22167;DHT22;11249;52.468;13.776;2022-07-03T14:07:08;34.40;82.70
22167;DHT22;11249;52.468;13.776;2022-07-03T14:09:42;34.50;82.70
22167;DHT22;11249;52.468;13.776;2022-07-03T14:12:09;34.80;81.90
22167;DHT22;11249;52.468;13.776;2022-07-03T14:14:43;35.30;82.60
22167;DHT22;11249;52.468;13.776;2022-07-03T14:17:16;35.10;82.30
22167;DHT22;11249;52.468;13.776;2022-07-03T14:19:42;35.60;82.60
22167;DHT22;11249;52.468;13.776;2022-07-03T14:22:09;36.10;80.90
22167;DHT22;11249;52.468;13.776;2022-07-03T14:24:42;35.70;80.40
22167;DHT22;11249;52.468;13.776;2022-07-03T14:27:15;35.90;80.30
22167;DHT22;11249;52.468;13.776;2022-07-03T14:30:00;36.60;80.90
22167;DHT22;11249;52.468;13.776;2022-07-03T14:32:52;37.40;78.70
22167;DHT22;11249;52.468;13.776;2022-07-03T14:35:18;37.90;79.20
22167;DHT22;11249;52.468;13.776;2022-07-03T14:37:45;38.50;77.20
22167;DHT22;11249;52.468;13.776;2022-07-03T14:40:32;39.10;77.70
22167;DHT22;11249;52.468;13.776;2022-07-03T14:42:58;39.60;76.50
22167;DHT22;11249;52.468;13.776;2022-07-03T14:45:32;38.90;76.50
22167;DHT22;11249;52.468;13.776;2022-07-03T14:48:07;38.00;75.70
22167;DHT22;11249;52.468;13.776;2022-07-03T14:50:35;37.30;77.60
22167;DHT22;11249;52.468;13.776;2022-07-03T14:53:16;37.80;77.30
22167;DHT22;11249;52.468;13.776;2022-07-03T14:55:49;38.40;77.40
22167;DHT22;11249;52.468;13.776;2022-07-03T14:58:27;38.70;76.00
22167;DHT22;11249;52.468;13.776;2022-07-03T15:00:55;38.10;76.20
22167;DHT22;11249;52.468;13.776;2022-07-03T15:03:33;37.80;75.50
22167;DHT22;11249;52.468;13.776;2022-07-03T15:06:12;38.20;75.90
22167;DHT22;11249;52.468;13.776;2022-07-03T15:09:02;38.50;75.80
22167;DHT22;11249;52.468;13.776;2022-07-03T15:11:45;38.70;74.80
22167;DHT22;11249;52.468;13.776;2022-07-03T15:14:42;38.90;74.40
22167;DHT22;11249;52.468;13.776;2022-07-03T15:17:17;38.90;74.00
22167;DHT22;11249;52.468;13.776;2022-07-03T15:19:45;39.10;74.80
22167;DHT22;11249;52.468;13.776;2022-07-03T15:22:22;38.70;73.20
22167;DHT22;11249;52.468;13.776;2022-07-03T15:24:57;38.80;73.60
22167;DHT22;11249;52.468;13.776;2022-07-03T15:27:31;38.70;73.40
22167;DHT22;11249;52.468;13.776;2022-07-03T15:29:58;38.70;73.40
22167;DHT22;11249;52.468;13.776;2022-07-03T15:32:31;38.70;73.10
22167;DHT22;11249;52.468;13.776;2022-07-03T15:34:58;38.60;73.60
22167;DHT22;11249;52.468;13.776;2022-07-03T15:37:39;38.70;74.60
22167;DHT22;11249;52.468;13.776;2022-07-03T15:40:23;38.60;75.30
22167;DHT22;11249;52.468;13.776;2022-07-03T15:51:24;38.00;72.60
22167;DHT22;11249;52.468;13.776;2022-07-03T15:54:02;38.00;72.10
22167;DHT22;11249;52.468;13.776;2022-07-03T15:56:31;38.00;72.40
22167;DHT22;11249;52.468;13.776;2022-07-03T15:59:06;38.10;73.30
22167;DHT22;11249;52.468;13.776;2022-07-03T16:01:43;38.10;74.00
22167;DHT22;11249;52.468;13.776;2022-07-03T16:05:05;38.20;72.50
22167;DHT22;11249;52.468;13.776;2022-07-03T16:07:40;38.00;72.80
22167;DHT22;11249;52.468;13.776;2022-07-03T16:10:08;37.70;73.30
22167;DHT22;11249;52.468;13.776;2022-07-03T16:12:43;38.20;71.50
22167;DHT22;11249;52.468;13.776;2022-07-03T16:15:12;38.10;72.50
22167;DHT22;11249;52.468;13.776;2022-07-03T16:17:46;38.10;72.40
22167;DHT22;11249;52.468;13.776;2022-07-03T16:20:14;38.20;71.80
22167;DHT22;11249;52.468;13.776;2022-07-03T16:22:41;37.80;72.10
22167;DHT22;11249;52.468;13.776;2022-07-03T16:25:15;38.20;72.10
22167;DHT22;11249;52.468;13.776;2022-07-03T16:27:42;38.30;71.70
22167;DHT22;11249;52.468;13.776;2022-07-03T16:30:10;38.50;71.80
22167;DHT22;11249;52.468;13.776;2022-07-03T16:32:43;38.20;71.50
22167;DHT22;11249;52.468;13.776;2022-07-03T16:35:45;38.30;71.70
22167;DHT22;11249;52.468;13.776;2022-07-03T16:38:30;38.10;72.10
22167;DHT22;11249;52.468;13.776;2022-07-03T16:41:04;38.00;72.60
22167;DHT22;11249;52.468;13.776;2022-07-03T16:43:39;37.80;72.80
22167;DHT22;11249;52.468;13.776;2022-07-03T16:46:14;37.60;72.10
22167;DHT22;11249;52.468;13.776;2022-07-03T16:48:49;37.10;71.60